Race Results for
Challenge Challenge Road Race
Challenge, CA
(Event Information)
View By:
Road Race on 08/30/2008

Note: Ranking points are NOT upgrade points. An explanation of ranking points can be found here.


Men - Master(B) - Master - 45-99

 Place Points NameCity, StateTime USAC #BibTeam
1Courtney Badour   00:00.0  402 
2John Seivert   Grass Valley, CA00:00.0 212792  401 Sierra Express/TONC

Men - Pro/Cat 1/2

 Place Points NameCity, StateTime USAC #BibTeam
1425.33Jesse Moore   Sacramento, CA00:00.0 204739  106 California Giant Berry Farms/S
2445.69Vincent Owens   Fresno, CA00:00.0 242560  105 Sierra Pacific Racing
3466.05Andres Gil   Stockton, CA00:00.0 171882  110 Pacific State Bank Cycling Tea
4486.41Jonathan Eropkin   Fresno, CA00:00.0 197844  102 VOS Racing
5506.77Eric Fischer   Berkeley, CA00:00.0 246309  103 Kovarus ABTA
6527.13Ian Tuttle   Mill Valley, CA00:00.0 216565  109 Above Category Racing
7547.48Michael Margraf   Auburn, CA00:00.0 128847  107 VOS Racing
8567.84Bo Hebenstreit   Campbell, CA00:00.0 196276  111 Webcor/Alto Velo
DNPMicah Herman   Carson City, NV00:00.0 224018  104 VOS Racing
DNFMichael Cordova   Chester, CA00:00.0 207547  101 Chico Corsa
DNFNathaniel English   Berkeley, CA00:00.0 258309  108 ZteaM
DNFMax Jenkins   Citrus Heights, CA00:00.0 195652  112 Unattached

Men - Cat 1/2/3 - Master - 35-99

 Place Points NameCity, StateTime USAC #BibTeam
1459.55Christopher Phipps   San Francisco, CA00:00.0 233623  606 Morgan Stanley/24 Hr Fitness/S
2468.57Daniel Bryant   Carmichael, CA00:00.0 195929  611 Specialized/Sierra Nevada
3477.59Scott Cole   Oakland, CA00:00.0 207165  610 Kaiser Permanente/ Team Oaklan
4486.60Scott Fonseca   Fair Oaks, CA00:00.0 204715  603 Zenn Cycling Team
5495.62David Levine   Alamo, CA00:00.0 145573  605 Synergy-Taleo Racing
6504.64Clark Foy   Los Gatos, CA00:00.0 255066  604 SJBC/SugarCRM
7513.66Bob Delp   Folsom, CA00:00.0 9138  601 Team Ride for a Reason
8522.67Daryl Spano   Fremont, CA00:00.0 146243  609 SJBC/SugarCRM
9531.69Raffi Jilizian   Danville, CA00:00.0 187667  612 Form Fitness
10540.71James Plummer   Chico, CA00:00.0 113486  607 Chico Corsa
11549.73Jeff Albert   Reno, NV00:00.0 235063  600 Liquid Cycling
DNFPaul Dyrwal   San Rafael, CA00:00.0 254245  602 ZTeam Cycling
DNFnabil samaan   00:00.0  608 Bicycle Business/Team Compound

Men - Cat 3

 Place Points NameCity, StateTime USAC #BibTeam
1502.09Stephen O'Mara   San Rafael, CA00:00.0 241392  574 ZTeaM
2505.42Chris Isley   El Granada, CA00:00.0 253814  573 Webcor/Alto velo
3508.75John Hancock   Sacramento, CA00:00.0 195844  582 Specialized/Sierra Nevada
4512.08Conrad Snover   Truckee, CA00:00.0 196378  577 Cyclepaths/Wild Cherries Racin
5515.41William (Billy) Crane   Mountain View, CA00:00.0 138129  588 
6518.74Kieran Sherlock   Palo Alto, CA00:00.0 218417  580 Webcor/Alto Velo
7522.07Michael Grundmann   Sunnyvale, CA00:00.0 182738  579 Webcor/Alto Velo
8525.40Phillip Slama   Seattle, WA00:00.0 204099  584 Active Athlete/Squadra Ovest
9528.74Damian Gonzalez   Stockton, CA00:00.0 178252  586 Pacific State Bank Cycling Tea
10532.07Ed Richardson   Livermore, CA00:00.0 272019  575 InfoVista/East Bay Cyclists
11535.40Petro Hizalev   Palo Alto00:00.0 224168  572 Webcor/Alto Velo
12538.73Trevor Thompson   Truckee, CA00:00.0 212806  583 Team Ride for a Reason
13542.06Heath Medeiros   Carson City, NV00:00.0 238772  578 Alta Alpina Cycling Club
14545.39Nathanael Christensen   Clements, CA00:00.0 239919  571 Rocket Sports Racing
DNPWilliam (Billy) Crane   Mountain View, CA00:00.0 138129  581 Webcor/Alto Velo
DNFJoseph Christensen   Clements, CA00:00.0 240832  570 Rocket Sports Racing
DNFSamuel Wilson   Palo Alto, CA00:00.0 248077  576 Metromint Cycling on Marin Bik
DNFRobert Meyer   Mountain View, CA00:00.0 255751  585 USA UNIVERSITY ALL-STARS CYCLI

Men - Cat 4

 Place Points NameCity, StateTime USAC #BibTeam
1540.00Keith Hillier   Millbrae, CA00:00.0 276108  708 Mad Cat Bicycles
2justin molloy   00:00.0  714 NA
3543.26Bruno Pitton   Winters, CA00:00.0 240530  716 Davis Bike Club
4544.90Scot Ferguson   Reno, NV00:00.0 195008  727 Reno Wheelmen
5546.53derek dixon   West Jordan, UT00:00.0 277136  705 Unattached
6Alexander Blease   00:00.0  702 Chico Corsa
7549.79Benjamin Ragains   Sparks, NV00:00.0 211382  730 Unattached
8taylor bertrand-barrett   00:00.0  701 colavita norcal
9553.05Francisco Sanchez Jr   Stockton, CA00:00.0 270261  729 Pacific Bank
10554.69donald hahn   Reno, NV00:00.0 280149  707 NA
11Jared Prince   00:00.0  718 Godspeed/ ZOOM
12557.95Jake Mestre   Reno, NV00:00.0 205653  728 Reno Wheelmen
13559.58Jeff Malnick   Monterey, CA00:00.0 260198  712 NA
14Tyler Honeyman   00:00.0  709 Chico Corsa Cycling Team
15Michael Jasinski   00:00.0  710 chico corsa
16564.48Shawn Yackle   Brooklyn, NY00:00.0 237175  723 Godspeed Courier
17566.11Samuel Bolster   Camino, CA00:00.0 258704  703 Team Ride For a Reason
18567.74Dale Matsuda   Rancho Cordova, CA00:00.0 200040  713 Easton/SugarCRM/Specialized
19569.37Matt Tufts   Placerville, CA00:00.0 240212  722 Bicycle Planet
DNSBarrett Ausman   San Jose, CA00:00.0 186327  700 Webcor/Alto Velo
DNSAnthony Coando   San Francisco, CA00:00.0 170101  704 Active Athlete/Squadra Ovest
DNSHippolyte Goux   00:00.0  706 UCLA Cycling
DNSMiles Neisser   Laguna Beach, CA00:00.0 207644  715 Rock solid/Art's Cyclery
DNSDavid Rossow   Los Gatos, CA00:00.0 232665  720 Webcor/Alto Velo
DNPRyan Price   Santa Rosa, CA00:00.0 267121  717 NA
DNPJonathan Southam   Napa, CA00:00.0 271641  721 Reno Wheelmen
DNPAlexander Yermolovich   Santa Clara, CA00:00.0 220894  724 UCI Cycling
DNPAndrew Scott   Truckee, CA 281899  725 NA
DNFRob Leever   Citrus Heights, CA00:00.0 267651  711 Rio Strada Racing
DNFAntonio Ricalde   San Jose, CA00:00.0 210987  719 Active Athlete/Squadra Ovest
DNFChristopher Barker   Rancho Cordova, CA00:00.0 196545  726 Rio Strada Racing

Men - Cat 4/5 - Master - 35-99

 Place Points NameCity, StateTime USAC #BibTeam
1512.56Arthur Jones   San Francisco, CA00:00.0 272999  965 NA
2515.16Scott Peifer   Granite Bay, CA00:00.0 265877  970 Team City
3517.75Mac Carey   Pleasant Hill, CA00:00.0 249301  954 Intermountain Orthopaedics/Los
4520.35Sean McDonald   Wallace, CA00:00.0 262357  983 Pacific State Bank Cycling Tea
5522.95Phillip Smith   El Dorado Hills, CA00:00.0 33251  976 Bicycle Planet
6525.54Jason Grefrath   Sacramento, CA00:00.0 281883  962 Team City
7528.14Mike McCullough   Auburn, CA00:00.0 56771  980 Team Ride for a Reason
8530.74Douglas McKenzie   Santa Rosa, CA00:00.0 201588  969 Fightin' Bobas
9533.34Barry Freifeld   Oakland, CA00:00.0 51650  958 SF Sport & Spine Pt Racing
10535.93William Brieger   Sacramento, CA00:00.0 124856  952 Davis Bike Club
11538.53Bill Hudson   Olympic Valley, CA00:00.0 103678  984 Unattached
12541.13Rick Kalb   Nevada City, CA00:00.0 188952  966 Sierra Express/TONC
13John Prosser   00:00.0  972 Z Team
14546.32Courtney Goode (1 - Cat5)   Folsom, CA00:00.0 273390  961 Specialized/Sierra Neveda
15548.92James Porter   Palo Alto, CA00:00.0 238708  971 NA
16551.51Richard Gelsi-Medeot   Novato, CA00:00.0 225191  960 wtb racing
17554.11Matt Conidaris   Gold River, CA00:00.0 195944  955 Body Concepts-Peak Cycling
18556.71Randy Floyd   Newcastle, CA00:00.0 90079  957 NA
19559.30Nelson Frink   Sutter, CA00:00.0 268821  959 Davis Bike Club
20561.90Bradford Hasse   El Dorado Hills, CA00:00.0 236804  963 Body Concepts
21564.50Alex Blease   San Jose, CA00:00.0 155963  951 TBS Racing Team
22567.09John Swift   San Jose, CA00:00.0 273816  977 InfoVista Cycling Team
23569.69Markham Connolly   Berkeley, CA00:00.0 208359  956 Touchstone Climbing
24572.29Dan Switlick   Granite Bay, CA00:00.0 271280  978 Team Ride for a Reason
25574.89Klint Robins   Lincoln, CA00:00.0 283415  981 
26577.48David Woodhouse   Lincoln, CA00:00.0 272962  979 Victory Velo
27Dave Smith   00:00.0  975 Rio Strada
28582.68Eric LaFranchi   Calistoga, CA00:00.0 199575  967 NA
DNSPat Beckley   Corning, CA 250242  950 chico corsa
DNSMichael Campbell   Berkeley, CA 231290  953 Synergy-Taleo Racing
DNSPhilip Hynes     964 NA
DNSGary Mandy   Reno, NV 273033  968 Cycle Paths/Wild Cherries Raci
DNSPatrick Roe   Reno, NV 273295  973 
DNPMark Shaw   00:00.0  982 

Men - Cat 5

 Place Points NameCity, StateTime USAC #BibTeam
1522.01Christopher Flanagan   San Francisco, CA00:00.0 276118  441 Team Swift
2530.26Zack Karas   Tahoe City, CA00:00.0 275784  442 unattached
3538.52Gregory Sakzewski   Pacific Grove, CA00:00.0 270201  444 Don Chapin Monterey Bay Racing
4David Condon   00:00.0  438 altovelo/zoom
5555.03Chris Johnson   New York, NY00:00.0 275087  449 
6563.28David Doll   Merced, CA00:00.0 281768  439 Stanislaus/Merlock Velo
7571.54Michael Ferrell   Provo, UT00:00.0 254614  447 Race Builders
8Ryan Wexler   00:00.0  445 NA
DNSBenjamin Ragains   Sparks, NV00:00.0 211382  443 Northstar/Giant
DNSalexander Donoghue   Santaclara, CA00:00.0 283527  440 NA
DNPGary Dunn   00:00.0  448 

Men - Master - MR - 45-99

 Place Points NameCity, StateTime USAC #BibTeam
1396.02James Allen   Davis, CA00:00.0 196753  344 Bollo Racing
2412.89Jon Ornstil   San Francisco, CA00:00.0 71802  356 VOS Racing
3429.76Jan Elsbach   Davis, CA00:00.0 200149  349 Bollo Racing
4446.63Mark Caldwell   Moraga, CA00:00.0 40039  357 Morgan Stanley/24 Hr Fitness/S
5463.50Steven Archer   Danville, CA00:00.0 87938  345 Morgan Stanley/24hr Fitness/Sp
6480.37James Morgan   Oakland, CA00:00.0 208555  351 Webcor/Alto Velo
7497.24Bill Brier   Fremont, CA00:00.0 274225  346 Team Fremont / Sugar CRM
8514.11Lance Newey   Fair Oaks, CA00:00.0 202161  352 Specialized/Sierra Nevada
9530.98Edgar Leano   St Cloud, FL00:00.0 224847  350 renowheelmen
10547.85Kyle Brutschy (1 - Cat3)   San Francisco, CA00:00.0 5262  347 DFL
11564.72Barney Drake   Reno, NV00:00.0 233995  348 Reno Wheelmen
12581.59Eric Brown   Sacramento, CA00:00.0 241658  358 Specialized/Sierra Nevada
DNSGilbert Tarin   Knightsen, CA00:00.0 252241  353 NA
DNPMax Thompson   San Anselmo, CA00:00.0 80642  354 Morgn Stanley/24hr fitness/Spe
DNPGARY SPEER   Oroville, CA00:00.0 272940  355 

Men - Master - MR - 55-99

 Place Points NameCity, StateTime USAC #BibTeam
1Ron LeBard   Grass Valley, CA00:00.0 125445  19 Webcor/Alto Velo

Women - Cat 1/2/3

 Place Points NameCity, StateTime USAC #BibTeam
1507.81Olivia Dillon   Fairfax, CA00:00.0 232172  273 Touchstone Climbing
2514.66Kimberly Fong   Berkeley, CA00:00.0 238713  266 Easton/SugarCRM/Specialized
3521.50Kelly McDonald   Davis, CA00:00.0 202178  272 Touchstone Climbing
4528.35Lauraleen Fenech   San Francisco, CA00:00.0 224272  265 Team Walthour
5535.19Flavia Oliveira   Livermore, CA00:00.0 224767  271 Unattached
DNSsusannah breen   Pleasant Hill, CA00:00.0 251128  242 wells fargo racing team

Women - Cat 3

 Place Points NameCity, StateTime USAC #BibTeam
1Jennifer Zierke   Millbrae, CA00:00.0 275670  534 Mad Cat Bicycles
2Emily Foxman   Mountain View, CA00:00.0 255430  533 UC Davis Aggies
DNSCody Clark   Sacramento, CA00:00.0 248416  532 Wells Fargo
DNPHeather Nielson   Seattle, WA00:00.0 237346  536 Colavita Racing
DNFMarian Jamison   Gloucester, MA00:00.0 230034  535 Unattached

Women - Cat 4

 Place Points NameCity, StateTime USAC #BibTeam
1540.00Marley Smith   Roseville, CA00:00.0 276961  830 Race Builders Inc.
2556.67Marianne Hernandez   Davis, CA00:00.0 68813  826 Davis Bike Club
3573.33Gina Lowe   Redding, CA00:00.0 207849  829 Redding Velo
4590.00Sara Southam   Napa, CA00:00.0 275385  842 Reno Wheelman

Report missing or incorrect license numbers

Volkswagen
Bonk BreakerUSACDFSierra NevadaSpyShimano
UCI USA Cycling is the official governing body for all disciplines of competitive cycling in the United States. The 501c3, membership-based organization aims both to achieve sustained success in international cycling competition and to grow competitive cycling in America while delivering an exceptional customer experience.
View Children's Online Privacy Protection Policy
US Olympic Committee